createdAt,value
2018-10-05T00:02:32.338Z,14.00
2018-10-05T00:05:07.373Z,15.37
2018-10-05T00:07:42.190Z,16.50
2018-10-05T00:10:21.414Z,13.67
2018-10-05T00:12:56.142Z,13.60
2018-10-05T00:15:32.231Z,11.70
2018-10-05T00:18:09.075Z,15.67
2018-10-05T00:20:46.798Z,19.63
2018-10-05T00:23:23.631Z,13.97
2018-10-05T00:25:58.421Z,13.50
2018-10-05T00:28:34.875Z,15.60
2018-10-05T00:31:11.586Z,15.07
2018-10-05T00:33:47.194Z,14.20
2018-10-05T00:36:21.959Z,14.27
2018-10-05T00:38:57.070Z,11.77
2018-10-05T00:41:33.230Z,13.17
2018-10-05T00:44:10.831Z,13.87
2018-10-05T00:46:45.622Z,15.90
2018-10-05T00:49:22.936Z,12.07
2018-10-05T00:51:59.658Z,10.80
2018-10-05T00:54:34.814Z,13.30
2018-10-05T00:57:09.753Z,17.17
2018-10-05T00:59:44.719Z,12.23
2018-10-05T01:02:19.411Z,17.33
2018-10-05T01:04:54.404Z,11.77
2018-10-05T01:07:29.374Z,18.97
2018-10-05T01:10:06.006Z,17.53
2018-10-05T01:12:40.998Z,14.67
2018-10-05T01:15:17.225Z,15.80
2018-10-05T01:17:53.252Z,15.13
2018-10-05T01:20:28.671Z,18.20
2018-10-05T01:23:03.755Z,13.20
2018-10-05T01:25:39.418Z,13.77
2018-10-05T01:28:14.731Z,14.90
2018-10-05T01:30:49.696Z,11.63
2018-10-05T01:33:25.207Z,18.97
2018-10-05T01:36:00.566Z,12.17
2018-10-05T01:38:36.247Z,16.63
2018-10-05T01:41:12.138Z,16.10
2018-10-05T01:43:47.075Z,18.07
2018-10-05T01:46:21.918Z,14.73
2018-10-05T01:48:56.914Z,16.50
2018-10-05T01:51:35.448Z,16.57
2018-10-05T01:54:10.459Z,15.93
2018-10-05T01:56:45.322Z,16.63
2018-10-05T01:59:22.173Z,16.83
2018-10-05T02:01:56.772Z,12.97
2018-10-05T02:04:31.618Z,16.37
2018-10-05T02:07:07.104Z,14.60
2018-10-05T02:09:42.108Z,13.53
2018-10-05T02:12:17.680Z,14.10
2018-10-05T02:14:52.478Z,12.60
2018-10-05T02:17:27.273Z,15.70
2018-10-05T02:20:03.021Z,14.83
2018-10-05T02:22:39.123Z,13.77
2018-10-05T02:25:14.837Z,15.83
2018-10-05T02:27:49.755Z,15.63
2018-10-05T02:30:24.658Z,14.90
2018-10-05T02:32:59.307Z,13.50
2018-10-05T02:35:35.448Z,12.60
2018-10-05T02:38:12.601Z,15.57
2018-10-05T02:40:49.088Z,18.77
2018-10-05T02:43:24.568Z,18.33
2018-10-05T02:45:59.472Z,15.73
2018-10-05T02:48:34.272Z,14.90
2018-10-05T02:51:09.274Z,15.03
2018-10-05T02:53:44.261Z,17.10
2018-10-05T02:56:28.774Z,14.60
2018-10-05T02:59:03.965Z,15.10
2018-10-05T03:01:49.827Z,17.53
2018-10-05T03:04:25.272Z,13.33
2018-10-05T03:07:00.127Z,17.57
2018-10-05T03:09:35.153Z,20.17
2018-10-05T03:12:09.813Z,17.27
2018-10-05T03:14:44.607Z,19.77
2018-10-05T03:17:22.369Z,18.50
2018-10-05T03:19:57.135Z,16.37
2018-10-05T03:22:31.362Z,18.60
2018-10-05T03:25:06.114Z,14.77
2018-10-05T03:27:44.438Z,15.73
2018-10-05T03:30:19.190Z,15.33
2018-10-05T03:32:53.850Z,15.10
2018-10-05T03:35:28.597Z,12.43
2018-10-05T03:38:03.548Z,14.43
2018-10-05T03:40:39.297Z,14.83
2018-10-05T03:43:14.258Z,12.03
2018-10-05T03:45:49.093Z,14.87
2018-10-05T03:48:23.508Z,15.17
2018-10-05T03:50:58.622Z,13.13
2018-10-05T03:53:33.535Z,14.93
2018-10-05T03:56:08.062Z,13.37
2018-10-05T03:58:42.853Z,13.83
2018-10-05T04:01:18.250Z,13.00
2018-10-05T04:03:54.278Z,11.43
2018-10-05T04:06:29.894Z,12.50
2018-10-05T04:09:06.724Z,12.27
2018-10-05T04:11:41.539Z,13.00
2018-10-05T04:14:16.248Z,13.70
2018-10-05T04:16:51.030Z,12.37
2018-10-05T04:19:26.016Z,15.27
2018-10-05T04:22:03.236Z,12.77
2018-10-05T04:24:37.962Z,10.40
2018-10-05T04:27:13.310Z,12.43
2018-10-05T04:29:48.101Z,16.27
2018-10-05T04:32:22.651Z,13.17
2018-10-05T04:34:58.310Z,12.97
2018-10-05T04:37:33.349Z,13.57
2018-10-05T04:40:08.862Z,13.83
2018-10-05T04:42:44.110Z,14.93
2018-10-05T04:45:19.104Z,15.00
2018-10-05T04:47:53.558Z,14.50
2018-10-05T04:50:28.304Z,14.00
2018-10-05T04:53:03.974Z,12.67
2018-10-05T04:55:43.763Z,13.77
2018-10-05T04:58:18.384Z,13.57
2018-10-05T05:00:52.979Z,16.10
2018-10-05T05:03:28.068Z,13.57
2018-10-05T05:06:02.712Z,14.73
2018-10-05T05:08:38.417Z,15.03
2018-10-05T05:11:14.581Z,12.87
2018-10-05T05:13:49.505Z,13.13
2018-10-05T05:16:24.319Z,13.00
2018-10-05T05:19:00.854Z,15.40
2018-10-05T05:21:35.859Z,16.07
2018-10-05T05:24:10.581Z,13.03
2018-10-05T05:26:45.292Z,15.20
2018-10-05T05:29:20.035Z,10.43
2018-10-05T05:31:54.978Z,12.93
2018-10-05T05:34:30.112Z,12.17
2018-10-05T05:37:04.875Z,12.93
2018-10-05T05:39:39.656Z,12.13
2018-10-05T05:42:14.228Z,12.57
2018-10-05T05:44:49.247Z,12.70
2018-10-05T05:47:23.687Z,12.30
2018-10-05T05:50:01.379Z,14.23
2018-10-05T05:52:36.358Z,13.10
2018-10-05T05:55:11.239Z,14.40
2018-10-05T05:57:45.944Z,19.10
2018-10-05T06:00:20.586Z,13.30
2018-10-05T06:02:55.408Z,17.20
2018-10-05T06:05:31.043Z,15.13
2018-10-05T06:08:08.207Z,14.70
2018-10-05T06:10:50.830Z,14.23
2018-10-05T06:13:27.423Z,17.50
2018-10-05T06:16:03.928Z,15.03
2018-10-05T06:18:44.371Z,12.80
2018-10-05T06:21:18.925Z,19.70
2018-10-05T06:23:53.558Z,19.20
2018-10-05T06:26:28.224Z,18.17
2018-10-05T06:29:07.579Z,19.57
2018-10-05T06:31:42.365Z,18.43
2018-10-05T06:34:17.189Z,17.10
2018-10-05T06:36:51.620Z,17.80
2018-10-05T06:39:26.297Z,16.33
2018-10-05T06:42:01.070Z,16.90
2018-10-05T06:44:36.059Z,17.40
2018-10-05T06:47:10.870Z,19.13
2018-10-05T06:49:45.572Z,18.40
2018-10-05T06:52:20.380Z,20.07
2018-10-05T06:54:55.195Z,19.03
2018-10-05T06:57:29.864Z,15.70
2018-10-05T07:00:04.649Z,13.97
2018-10-05T07:02:39.333Z,17.40
2018-10-05T07:05:14.094Z,16.63
2018-10-05T07:07:48.774Z,16.30
2018-10-05T07:10:23.341Z,15.63
2018-10-05T07:12:58.295Z,19.43
2018-10-05T07:15:33.121Z,17.93
2018-10-05T07:18:08.183Z,18.90
2018-10-05T07:20:42.925Z,17.13
2018-10-05T07:23:17.532Z,15.53
2018-10-05T07:25:51.953Z,20.33
2018-10-05T07:28:29.820Z,17.03
2018-10-05T07:31:05.591Z,18.40
2018-10-05T07:33:40.856Z,23.50
2018-10-05T07:36:16.085Z,18.33
2018-10-05T07:38:50.969Z,19.00
2018-10-05T07:41:26.252Z,16.50
2018-10-05T07:44:01.032Z,17.47
2018-10-05T07:46:35.670Z,16.00
2018-10-05T07:49:10.836Z,16.60
2018-10-05T07:52:19.832Z,15.07
2018-10-05T07:54:55.327Z,17.73
2018-10-05T07:57:37.515Z,17.47
2018-10-05T08:00:12.367Z,14.67
2018-10-05T08:02:47.393Z,15.23
2018-10-05T08:05:22.255Z,20.13
2018-10-05T08:07:57.137Z,15.00
2018-10-05T08:10:31.990Z,18.53
2018-10-05T08:13:08.467Z,13.77
2018-10-05T08:15:43.329Z,15.40
2018-10-05T08:18:18.535Z,14.60
2018-10-05T08:20:52.849Z,16.47
2018-10-05T08:23:30.757Z,16.20
2018-10-05T08:26:05.714Z,17.10
2018-10-05T08:28:40.601Z,12.93
2018-10-05T08:31:15.824Z,14.67
2018-10-05T08:33:50.542Z,16.90
2018-10-05T08:36:25.601Z,20.83
2018-10-05T08:39:01.950Z,18.83
2018-10-05T08:41:43.930Z,20.07
2018-10-05T08:44:24.843Z,20.97
2018-10-05T08:46:59.865Z,17.70
2018-10-05T08:49:37.363Z,15.93
2018-10-05T08:52:19.869Z,17.97
2018-10-05T08:55:01.487Z,17.67
2018-10-05T08:58:13.527Z,15.93
2018-10-05T09:04:15.714Z,18.13
2018-10-05T09:07:18.944Z,18.90
2018-10-05T09:19:45.424Z,16.83
2018-10-05T09:23:05.070Z,17.80
2018-10-05T09:25:49.720Z,17.37
2018-10-05T09:28:40.727Z,15.67
2018-10-05T09:31:15.949Z,20.03
2018-10-05T09:34:26.866Z,22.13
2018-10-05T09:37:33.224Z,19.97
2018-10-05T09:40:29.931Z,17.83
2018-10-05T09:43:36.680Z,20.53
2018-10-05T09:46:36.221Z,17.23
2018-10-05T09:49:34.047Z,18.80
2018-10-05T09:54:52.257Z,17.87
2018-10-05T09:57:51.631Z,16.67
2018-10-05T10:04:04.023Z,18.40
2018-10-05T10:09:49.841Z,20.17
2018-10-05T10:12:28.706Z,16.90
2018-10-05T10:15:15.852Z,17.90
2018-10-05T10:17:58.095Z,14.57
2018-10-05T10:20:51.258Z,17.00
2018-10-05T10:27:39.170Z,19.33
2018-10-05T10:30:16.108Z,18.27
2018-10-05T10:32:51.408Z,13.97
2018-10-05T10:35:31.523Z,15.83
2018-10-05T10:38:08.299Z,17.03
2018-10-05T10:40:46.243Z,13.30
2018-10-05T10:43:22.040Z,15.67
2018-10-05T10:45:57.087Z,15.27
2018-10-05T10:48:34.175Z,16.57
2018-10-05T10:51:13.350Z,14.43
2018-10-05T10:53:49.188Z,18.83
2018-10-05T10:56:27.208Z,14.27
2018-10-05T10:59:03.355Z,14.73
2018-10-05T11:01:39.885Z,17.83
2018-10-05T11:04:15.808Z,13.37
2018-10-05T11:06:50.709Z,15.30
2018-10-05T11:09:26.226Z,13.63
2018-10-05T11:12:04.584Z,14.63
2018-10-05T11:14:41.034Z,14.37
2018-10-05T11:17:21.616Z,13.07
2018-10-05T11:19:57.324Z,13.30
2018-10-05T11:22:34.160Z,11.33
2018-10-05T11:25:25.836Z,13.30
2018-10-05T11:28:07.137Z,9.80
2018-10-05T11:30:46.619Z,12.00
2018-10-05T11:33:24.342Z,8.77
2018-10-05T11:35:59.147Z,10.67
2018-10-05T11:38:33.877Z,7.60
2018-10-05T11:41:09.829Z,7.13
2018-10-05T11:43:44.341Z,8.40
2018-10-05T11:46:19.089Z,6.53
2018-10-05T11:49:32.820Z,8.00
2018-10-05T11:52:58.032Z,9.20
2018-10-05T11:58:40.818Z,6.60
2018-10-05T12:01:51.494Z,6.63
2018-10-05T12:04:30.393Z,7.23
2018-10-05T12:07:08.611Z,6.67
2018-10-05T12:09:54.409Z,6.13
2018-10-05T12:12:29.598Z,4.93
2018-10-05T12:15:11.209Z,5.97
2018-10-05T12:17:46.713Z,8.23
2018-10-05T12:20:21.894Z,7.93
2018-10-05T12:22:56.860Z,8.53
2018-10-05T12:25:32.285Z,8.30
2018-10-05T12:28:07.642Z,5.63
2018-10-05T12:30:43.331Z,6.97
2018-10-05T12:33:18.708Z,7.37
2018-10-05T12:35:53.281Z,5.77
2018-10-05T12:38:28.059Z,5.50
2018-10-05T12:41:03.066Z,5.90
2018-10-05T12:43:37.752Z,5.07
2018-10-05T12:46:12.562Z,7.63
2018-10-05T12:48:48.052Z,8.13
2018-10-05T12:51:22.902Z,6.10
2018-10-05T12:53:57.407Z,6.33
2018-10-05T12:56:32.215Z,6.93
2018-10-05T12:59:09.381Z,6.77
2018-10-05T13:01:43.898Z,8.63
2018-10-05T13:04:18.569Z,4.60
2018-10-05T13:06:52.980Z,10.43
2018-10-05T13:09:27.644Z,6.93
2018-10-05T13:12:02.286Z,5.57
2018-10-05T13:14:36.879Z,5.17
2018-10-05T13:17:12.022Z,4.53
2018-10-05T13:19:46.788Z,8.60
2018-10-05T13:22:21.204Z,5.53
2018-10-05T13:24:55.666Z,8.47
2018-10-05T13:27:30.308Z,4.90
2018-10-05T13:30:05.279Z,5.50
2018-10-05T13:32:39.955Z,6.00
2018-10-05T13:35:14.571Z,4.70
2018-10-05T13:37:49.199Z,4.50
2018-10-05T13:40:24.683Z,4.37
2018-10-05T13:42:59.923Z,4.57
2018-10-05T13:45:36.864Z,4.87
2018-10-05T13:48:12.992Z,6.60
2018-10-05T13:50:48.498Z,4.87
2018-10-05T13:53:24.356Z,6.50
2018-10-05T13:55:59.986Z,5.00
2018-10-05T13:58:36.272Z,4.97
2018-10-05T14:01:11.590Z,5.20
2018-10-05T14:03:50.827Z,4.60
2018-10-05T14:06:27.761Z,5.20
2018-10-05T14:09:09.173Z,4.83
2018-10-05T14:11:46.724Z,4.90
2018-10-05T14:18:13.646Z,4.63
2018-10-05T14:21:09.200Z,10.13
2018-10-05T14:33:06.995Z,4.67
2018-10-05T14:36:15.275Z,4.03
2018-10-05T14:38:51.658Z,5.33
2018-10-05T14:41:27.208Z,4.07
2018-10-05T14:44:02.538Z,4.53
2018-10-05T14:46:39.061Z,7.73
2018-10-05T14:49:14.632Z,5.83
2018-10-05T14:51:49.594Z,4.53
2018-10-05T14:54:24.187Z,3.90
2018-10-05T14:57:01.200Z,4.10
2018-10-05T14:59:35.874Z,4.17
2018-10-05T15:02:11.094Z,3.87
2018-10-05T15:04:46.558Z,4.33
2018-10-05T15:07:21.258Z,5.43
2018-10-05T15:09:59.993Z,4.73
2018-10-05T15:12:34.919Z,5.30
2018-10-05T15:15:09.792Z,5.93
2018-10-05T15:17:47.745Z,4.33
2018-10-05T15:20:22.310Z,4.60
2018-10-05T15:22:56.979Z,4.97
2018-10-05T15:25:31.968Z,5.57
2018-10-05T15:28:06.855Z,4.63
2018-10-05T15:30:41.812Z,6.30
2018-10-05T15:33:16.886Z,4.20
2018-10-05T15:35:51.719Z,4.00
2018-10-05T15:38:26.282Z,3.80
2018-10-05T15:41:01.229Z,3.90
2018-10-05T15:43:37.027Z,3.97
2018-10-05T15:46:15.614Z,7.83
2018-10-05T15:48:50.279Z,3.87
2018-10-05T15:51:29.078Z,3.67
2018-10-05T15:54:04.365Z,4.93
2018-10-05T15:56:39.105Z,26.67
2018-10-05T15:59:14.094Z,8.27
2018-10-05T16:01:49.014Z,14.10
2018-10-05T16:04:35.457Z,6.60
2018-10-05T16:07:17.551Z,6.03
2018-10-05T16:12:54.506Z,3.47
2018-10-05T16:15:31.519Z,4.00
2018-10-05T16:18:06.357Z,3.20
2018-10-05T16:20:40.950Z,3.87
2018-10-05T16:23:15.616Z,3.97
2018-10-05T16:25:50.052Z,3.57
2018-10-05T16:28:24.591Z,3.90
2018-10-05T16:30:59.312Z,3.70
2018-10-05T16:33:33.737Z,6.97
2018-10-05T16:36:11.097Z,6.60
2018-10-05T16:38:45.769Z,4.13
2018-10-05T16:41:21.808Z,4.80
2018-10-05T16:44:03.406Z,4.80
2018-10-05T16:46:38.824Z,4.00
2018-10-05T16:49:13.443Z,4.53
2018-10-05T16:51:47.982Z,4.70
2018-10-05T16:54:22.520Z,5.70
2018-10-05T16:56:57.508Z,4.30
2018-10-05T16:59:32.244Z,4.00
2018-10-05T17:02:07.249Z,4.07
2018-10-05T17:04:41.802Z,3.80
2018-10-05T17:07:18.402Z,3.73
2018-10-05T17:09:52.914Z,4.03
2018-10-05T17:12:27.539Z,4.30
2018-10-05T17:15:05.363Z,4.20
2018-10-05T17:17:44.709Z,4.87
2018-10-05T17:20:19.333Z,5.90
2018-10-05T17:22:54.035Z,6.10
2018-10-05T17:25:28.498Z,5.43
2018-10-05T17:28:03.000Z,4.70
2018-10-05T17:30:37.763Z,5.53
2018-10-05T17:33:12.652Z,6.13
2018-10-05T17:35:47.495Z,5.50
2018-10-05T17:38:22.203Z,8.33
2018-10-05T17:40:56.629Z,7.17
2018-10-05T17:43:31.491Z,5.93
2018-10-05T17:46:06.201Z,7.60
2018-10-05T17:48:40.751Z,6.97
2018-10-05T17:51:15.353Z,7.00
2018-10-05T17:53:49.867Z,5.60
2018-10-05T17:56:24.499Z,7.00
2018-10-05T17:58:59.048Z,7.30
2018-10-05T18:01:33.488Z,7.57
2018-10-05T18:04:07.999Z,6.93
2018-10-05T18:06:42.557Z,8.90
2018-10-05T18:09:18.413Z,6.50
2018-10-05T18:11:53.114Z,8.87
2018-10-05T18:14:27.517Z,9.43
2018-10-05T18:17:02.255Z,7.03
2018-10-05T18:19:36.983Z,6.80
2018-10-05T18:22:12.400Z,7.87
2018-10-05T18:24:47.221Z,8.03
2018-10-05T18:27:22.804Z,8.13
2018-10-05T18:29:57.902Z,9.47
2018-10-05T18:32:33.067Z,11.97
2018-10-05T18:38:34.410Z,12.30
2018-10-05T18:41:10.471Z,14.13
2018-10-05T18:44:32.706Z,11.43
2018-10-05T18:50:21.022Z,9.53
2018-10-05T18:53:21.445Z,18.10
2018-10-05T18:59:23.304Z,18.00
2018-10-05T19:02:22.644Z,16.97
2018-10-05T19:04:58.618Z,9.77
2018-10-05T19:07:34.968Z,11.60
2018-10-05T19:10:10.278Z,12.90
2018-10-05T19:12:45.827Z,13.57
2018-10-05T19:15:21.907Z,14.83
2018-10-05T19:17:57.161Z,12.10
2018-10-05T19:20:33.051Z,9.80
2018-10-05T19:23:21.205Z,11.73
2018-10-05T19:26:07.236Z,8.93
2018-10-05T19:28:51.983Z,10.03
2018-10-05T19:31:34.864Z,8.07
2018-10-05T19:34:12.059Z,9.50
2018-10-05T19:36:47.348Z,8.70
2018-10-05T19:39:22.213Z,10.73
2018-10-05T19:41:58.102Z,10.73
2018-10-05T19:44:33.507Z,8.13
2018-10-05T19:47:11.010Z,11.13
2018-10-05T19:49:46.041Z,9.40
2018-10-05T19:52:21.590Z,9.40
2018-10-05T19:55:06.138Z,13.27
2018-10-05T19:57:47.191Z,10.77
2018-10-05T20:00:35.316Z,13.17
2018-10-05T20:03:17.170Z,10.47
2018-10-05T20:05:52.913Z,11.30
2018-10-05T20:08:28.031Z,11.10
2018-10-05T20:11:04.695Z,14.23
2018-10-05T20:13:39.964Z,12.53
2018-10-05T20:16:15.000Z,10.60
2018-10-05T20:18:52.716Z,12.50
2018-10-05T20:21:27.289Z,13.63
2018-10-05T20:24:02.159Z,19.00
2018-10-05T20:26:43.775Z,20.53
2018-10-05T20:29:21.150Z,14.70
2018-10-05T20:31:59.930Z,13.73
2018-10-05T20:34:37.363Z,15.07
2018-10-05T20:37:13.288Z,16.17
2018-10-05T20:39:47.657Z,12.17
2018-10-05T20:42:24.292Z,13.00
2018-10-05T20:44:59.167Z,14.80
2018-10-05T20:47:33.681Z,15.20
2018-10-05T20:50:08.312Z,16.13
2018-10-05T20:52:43.287Z,15.70
2018-10-05T20:55:17.887Z,17.57
2018-10-05T20:57:52.548Z,16.87
2018-10-05T21:00:27.289Z,15.17
2018-10-05T21:03:02.490Z,17.27
2018-10-05T21:05:37.284Z,15.30
2018-10-05T21:08:14.227Z,18.33
2018-10-05T21:10:48.720Z,14.73
2018-10-05T21:13:23.383Z,18.57
2018-10-05T21:16:00.098Z,16.30
2018-10-05T21:18:34.738Z,18.67
2018-10-05T21:21:10.113Z,16.53
2018-10-05T21:23:46.145Z,14.97
2018-10-05T21:26:22.303Z,16.77
2018-10-05T21:28:57.125Z,17.77
2018-10-05T21:31:32.737Z,14.77
2018-10-05T21:34:07.920Z,15.03
2018-10-05T21:36:42.792Z,17.13
2018-10-05T21:39:17.465Z,15.73
2018-10-05T21:41:52.273Z,14.73
2018-10-05T21:44:26.700Z,13.43
2018-10-05T21:47:01.492Z,14.00
2018-10-05T21:49:36.542Z,16.20
2018-10-05T21:52:11.178Z,13.67
2018-10-05T21:54:45.937Z,13.40
2018-10-05T21:57:20.566Z,11.50
2018-10-05T21:59:55.411Z,14.67
2018-10-05T22:02:35.027Z,14.20
2018-10-05T22:05:09.759Z,15.10
2018-10-05T22:07:44.502Z,12.87
2018-10-05T22:10:19.485Z,19.03
2018-10-05T22:12:57.797Z,18.97
2018-10-05T22:15:32.505Z,14.07
2018-10-05T22:18:07.347Z,18.97
2018-10-05T22:20:41.920Z,12.07
2018-10-05T22:23:16.499Z,15.33
2018-10-05T22:25:50.983Z,13.27
2018-10-05T22:28:25.613Z,15.03
2018-10-05T22:31:00.306Z,14.33
2018-10-05T22:33:35.013Z,12.60
2018-10-05T22:36:09.899Z,14.80
2018-10-05T22:38:44.508Z,13.07
2018-10-05T22:41:20.782Z,17.10
2018-10-05T22:43:55.538Z,14.07
2018-10-05T22:46:30.151Z,11.90
2018-10-05T22:49:09.584Z,12.10
2018-10-05T22:51:44.366Z,13.50
2018-10-05T22:54:19.105Z,13.73
2018-10-05T22:56:53.879Z,15.77
2018-10-05T22:59:28.874Z,16.70
2018-10-05T23:02:04.282Z,14.33
2018-10-05T23:04:38.849Z,15.47
2018-10-05T23:07:13.665Z,16.77
2018-10-05T23:09:48.389Z,16.53
2018-10-05T23:12:23.038Z,14.63
2018-10-05T23:14:57.869Z,17.93
2018-10-05T23:17:32.928Z,15.70
2018-10-05T23:20:07.797Z,17.33
2018-10-05T23:22:42.544Z,14.23
2018-10-05T23:25:18.368Z,15.10
2018-10-05T23:27:54.145Z,15.37
2018-10-05T23:30:29.024Z,19.90
2018-10-05T23:33:04.775Z,14.47
2018-10-05T23:35:39.756Z,16.37
2018-10-05T23:38:18.681Z,16.90
2018-10-05T23:40:53.216Z,15.70
2018-10-05T23:43:27.785Z,16.40
2018-10-05T23:46:02.724Z,14.30
2018-10-05T23:48:37.349Z,15.33
2018-10-05T23:51:12.274Z,15.17
2018-10-05T23:53:46.716Z,17.67
2018-10-05T23:56:21.443Z,15.50
2018-10-05T23:58:56.167Z,17.00
